createdAt,value
2017-09-13T00:00:12.351Z,5.00
2017-09-13T00:02:41.444Z,6.03
2017-09-13T00:05:10.311Z,6.70
2017-09-13T00:07:39.429Z,5.73
2017-09-13T00:10:08.421Z,5.30
2017-09-13T00:12:37.417Z,6.27
2017-09-13T00:15:07.706Z,5.40
2017-09-13T00:17:36.641Z,5.70
2017-09-13T00:20:05.523Z,5.97
2017-09-13T00:22:35.656Z,6.13
2017-09-13T00:25:04.432Z,5.47
2017-09-13T00:27:33.739Z,5.20
2017-09-13T00:30:03.037Z,5.30
2017-09-13T00:32:32.253Z,6.00
2017-09-13T00:35:02.551Z,5.30
2017-09-13T00:37:31.351Z,4.80
2017-09-13T00:40:01.423Z,4.87
2017-09-13T00:42:30.696Z,5.07
2017-09-13T00:44:59.767Z,4.90
2017-09-13T00:47:29.954Z,5.70
2017-09-13T00:49:59.186Z,5.37
2017-09-13T00:52:29.274Z,5.70
2017-09-13T00:54:59.746Z,4.73
2017-09-13T00:57:29.625Z,5.03
2017-09-13T00:59:58.610Z,5.20
2017-09-13T01:02:27.690Z,4.40
2017-09-13T01:04:57.644Z,5.90
2017-09-13T01:07:27.062Z,6.10
2017-09-13T01:09:57.174Z,5.37
2017-09-13T01:12:26.066Z,5.23
2017-09-13T01:14:56.185Z,6.17
2017-09-13T01:17:25.072Z,4.90
2017-09-13T01:19:54.585Z,5.20
2017-09-13T01:22:23.467Z,6.27
2017-09-13T01:24:53.711Z,5.80
2017-09-13T01:27:22.937Z,5.60
2017-09-13T01:29:53.196Z,5.23
2017-09-13T01:32:22.369Z,6.10
2017-09-13T01:34:51.532Z,5.60
2017-09-13T01:37:20.708Z,4.73
2017-09-13T01:39:49.593Z,5.93
2017-09-13T01:42:19.206Z,5.77
2017-09-13T01:44:48.198Z,5.20
2017-09-13T01:47:17.091Z,5.10
2017-09-13T01:49:46.182Z,6.23
2017-09-13T01:52:15.072Z,4.43
2017-09-13T01:54:44.210Z,6.00
2017-09-13T01:57:13.470Z,4.90
2017-09-13T01:59:43.132Z,4.30
2017-09-13T02:02:12.174Z,5.17
2017-09-13T02:04:41.119Z,4.67
2017-09-13T02:07:10.008Z,5.70
2017-09-13T02:09:38.951Z,5.00
2017-09-13T02:12:08.064Z,5.63
2017-09-13T02:14:37.965Z,5.03
2017-09-13T02:17:07.262Z,5.30
2017-09-13T02:19:36.358Z,5.10
2017-09-13T02:22:05.552Z,4.50
2017-09-13T02:24:34.652Z,5.30
2017-09-13T02:27:04.364Z,5.00
2017-09-13T02:29:33.367Z,4.40
2017-09-13T02:32:03.681Z,4.60
2017-09-13T02:34:32.571Z,4.57
2017-09-13T02:37:01.667Z,4.43
2017-09-13T02:39:30.357Z,5.30
2017-09-13T02:42:00.371Z,5.27
2017-09-13T02:44:29.363Z,5.90
2017-09-13T02:46:58.338Z,5.07
2017-09-13T02:49:27.259Z,5.30
2017-09-13T02:51:57.044Z,5.27
2017-09-13T02:54:26.060Z,4.80
2017-09-13T02:56:54.905Z,5.47
2017-09-13T02:59:23.845Z,5.13
2017-09-13T03:01:52.893Z,5.53
2017-09-13T03:04:21.632Z,5.33
2017-09-13T03:06:51.534Z,5.20
2017-09-13T03:11:55.665Z,4.40
2017-09-13T03:14:24.765Z,5.13
2017-09-13T03:16:53.655Z,4.20
2017-09-13T03:19:22.546Z,4.47
2017-09-13T03:21:51.616Z,5.83
2017-09-13T03:24:20.839Z,4.70
2017-09-13T03:26:50.754Z,4.87
2017-09-13T03:29:20.070Z,4.73
2017-09-13T03:31:49.189Z,5.63
2017-09-13T03:34:19.656Z,4.73
2017-09-13T03:36:49.489Z,5.30
2017-09-13T03:39:18.383Z,4.73
2017-09-13T03:41:47.563Z,5.10
2017-09-13T03:44:17.189Z,4.40
2017-09-13T03:46:46.425Z,4.80
2017-09-13T03:49:16.096Z,4.47
2017-09-13T03:51:45.507Z,5.00
2017-09-13T03:54:15.417Z,4.83
2017-09-13T03:56:45.336Z,4.67
2017-09-13T03:59:14.425Z,4.30
2017-09-13T04:01:43.531Z,5.53
2017-09-13T04:04:12.465Z,4.40
2017-09-13T04:06:42.072Z,5.97
2017-09-13T04:09:11.219Z,6.10
2017-09-13T04:11:40.110Z,6.73
2017-09-13T04:14:10.464Z,5.10
2017-09-13T04:16:39.664Z,4.87
2017-09-13T04:19:08.581Z,4.60
2017-09-13T04:21:37.627Z,9.17
2017-09-13T04:24:07.444Z,8.10
2017-09-13T04:26:36.324Z,6.23
2017-09-13T04:29:06.242Z,4.83
2017-09-13T04:31:35.796Z,4.20
2017-09-13T04:34:06.961Z,4.43
2017-09-13T04:36:36.394Z,4.70
2017-09-13T04:39:05.691Z,4.70
2017-09-13T04:41:35.521Z,4.43
2017-09-13T04:44:05.527Z,4.60
2017-09-13T04:46:35.854Z,5.30
2017-09-13T04:49:04.768Z,4.50
2017-09-13T04:51:34.917Z,5.30
2017-09-13T04:54:05.306Z,7.30
2017-09-13T04:56:34.998Z,5.50
2017-09-13T04:59:05.295Z,5.00
2017-09-13T05:01:34.657Z,4.40
2017-09-13T05:04:04.140Z,4.83
2017-09-13T05:06:33.521Z,4.70
2017-09-13T05:09:02.633Z,4.77
2017-09-13T05:11:31.934Z,5.80
2017-09-13T05:14:00.851Z,5.57
2017-09-13T05:16:29.814Z,4.90
2017-09-13T05:18:58.714Z,6.10
2017-09-13T05:21:27.604Z,6.23
2017-09-13T05:23:56.994Z,5.00
2017-09-13T05:26:25.889Z,5.30
2017-09-13T05:28:54.944Z,5.30
2017-09-13T05:31:23.869Z,5.87
2017-09-13T05:33:52.772Z,5.40
2017-09-13T05:36:21.762Z,6.13
2017-09-13T05:38:50.993Z,5.87
2017-09-13T05:41:21.183Z,6.03
2017-09-13T05:43:50.250Z,6.40
2017-09-13T05:46:19.088Z,5.70
2017-09-13T05:48:48.163Z,6.60
2017-09-13T05:51:18.280Z,7.87
2017-09-13T05:53:48.331Z,14.90
2017-09-13T05:56:17.390Z,5.73
2017-09-13T05:58:46.568Z,6.17
2017-09-13T06:01:15.789Z,8.40
2017-09-13T06:03:44.923Z,8.40
2017-09-13T06:06:15.006Z,8.83
2017-09-13T06:08:43.899Z,7.47
2017-09-13T06:11:12.861Z,8.53
2017-09-13T06:13:41.987Z,6.70
2017-09-13T06:16:11.318Z,6.57
2017-09-13T06:18:40.298Z,9.90
2017-09-13T06:21:09.345Z,6.27
2017-09-13T06:23:38.262Z,6.40
2017-09-13T06:26:07.237Z,6.20
2017-09-13T06:28:38.204Z,6.00
2017-09-13T06:31:13.923Z,6.03
2017-09-13T06:33:45.404Z,7.00
2017-09-13T06:36:14.700Z,6.30
2017-09-13T06:38:44.270Z,6.83
2017-09-13T06:41:14.002Z,8.83
2017-09-13T06:43:42.933Z,6.10
2017-09-13T06:46:11.910Z,6.50
2017-09-13T06:48:41.361Z,15.63
2017-09-13T06:51:10.409Z,6.40
2017-09-13T06:53:39.505Z,6.97
2017-09-13T06:56:10.156Z,6.30
2017-09-13T06:58:39.634Z,19.53
2017-09-13T07:01:08.936Z,7.13
2017-09-13T07:03:37.825Z,7.50
2017-09-13T07:06:07.084Z,6.73
2017-09-13T07:08:36.025Z,7.53
2017-09-13T07:11:05.771Z,6.50
2017-09-13T07:13:35.112Z,7.10
2017-09-13T07:16:04.207Z,5.50
2017-09-13T07:18:33.287Z,5.83
2017-09-13T07:21:02.112Z,5.10
2017-09-13T07:23:32.038Z,5.30
2017-09-13T07:26:02.533Z,10.43
2017-09-13T07:28:32.129Z,6.53
2017-09-13T07:31:01.102Z,7.27
2017-09-13T07:33:30.971Z,5.73
2017-09-13T07:36:00.223Z,5.47
2017-09-13T07:38:29.779Z,6.17
2017-09-13T07:40:58.915Z,6.83
2017-09-13T07:43:28.955Z,6.20
2017-09-13T07:45:57.971Z,6.00
2017-09-13T07:48:26.936Z,6.07
2017-09-13T07:50:56.837Z,7.87
2017-09-13T07:53:26.440Z,6.77
2017-09-13T07:55:55.636Z,6.00
2017-09-13T07:58:25.632Z,6.00
2017-09-13T08:00:55.499Z,4.97
2017-09-13T08:03:25.086Z,5.83
2017-09-13T08:05:54.404Z,4.97
2017-09-13T08:08:25.025Z,5.63
2017-09-13T08:10:54.179Z,6.30
2017-09-13T08:13:24.719Z,6.63
2017-09-13T08:15:54.611Z,3.93
2017-09-13T08:18:23.917Z,3.70
2017-09-13T08:20:53.430Z,3.97
2017-09-13T08:23:22.722Z,5.93
2017-09-13T08:25:51.931Z,3.93
2017-09-13T08:28:21.832Z,5.00
2017-09-13T08:30:52.129Z,5.00
2017-09-13T08:33:21.507Z,6.47
2017-09-13T08:35:50.552Z,4.60
2017-09-13T08:38:19.442Z,5.07
2017-09-13T08:40:49.283Z,4.60
2017-09-13T08:43:18.761Z,5.80
2017-09-13T08:45:48.603Z,5.67
2017-09-13T08:48:17.572Z,6.77
2017-09-13T08:50:46.787Z,3.00
2017-09-13T08:53:16.067Z,2.93
2017-09-13T08:55:45.791Z,2.87
2017-09-13T08:58:15.285Z,2.80
2017-09-13T09:00:44.518Z,3.80
2017-09-13T09:03:13.885Z,3.37
2017-09-13T09:05:43.057Z,2.77
2017-09-13T09:08:11.972Z,3.50
2017-09-13T09:10:41.861Z,3.53
2017-09-13T09:13:11.606Z,3.43
2017-09-13T09:15:40.700Z,3.87
2017-09-13T09:18:10.613Z,3.90
2017-09-13T09:20:39.703Z,3.00
2017-09-13T09:23:08.798Z,3.30
2017-09-13T09:25:38.509Z,3.67
2017-09-13T09:28:07.606Z,3.40
2017-09-13T09:30:37.929Z,3.23
2017-09-13T09:33:08.053Z,3.20
2017-09-13T09:35:38.988Z,4.00
2017-09-13T09:38:08.099Z,3.23
2017-09-13T09:40:37.054Z,2.87
2017-09-13T09:43:06.236Z,4.27
2017-09-13T09:45:36.304Z,3.20
2017-09-13T09:48:05.420Z,2.90
2017-09-13T09:50:34.532Z,3.60
2017-09-13T09:53:03.683Z,8.00
2017-09-13T09:55:32.589Z,3.70
2017-09-13T09:58:02.722Z,4.00
2017-09-13T10:00:32.172Z,4.20
2017-09-13T10:03:01.133Z,4.70
2017-09-13T10:05:31.436Z,4.80
2017-09-13T10:08:01.333Z,4.80
2017-09-13T10:10:31.025Z,3.70
2017-09-13T10:13:00.400Z,3.80
2017-09-13T10:15:29.481Z,3.53
2017-09-13T10:17:58.605Z,5.10
2017-09-13T10:20:27.801Z,4.40
2017-09-13T10:22:57.293Z,3.83
2017-09-13T10:25:26.406Z,4.10
2017-09-13T10:27:56.987Z,3.67
2017-09-13T10:30:26.215Z,4.20
2017-09-13T10:32:57.168Z,4.43
2017-09-13T10:35:26.578Z,4.90
2017-09-13T10:37:55.909Z,2.80
2017-09-13T10:40:25.007Z,2.90
2017-09-13T10:42:54.275Z,2.43
2017-09-13T10:45:23.508Z,2.60
2017-09-13T10:47:52.497Z,4.03
2017-09-13T10:50:21.881Z,4.80
2017-09-13T10:52:51.086Z,1.73
2017-09-13T10:55:20.855Z,2.47
2017-09-13T10:57:50.974Z,2.27
2017-09-13T11:00:20.734Z,2.50
2017-09-13T11:02:50.588Z,2.90
2017-09-13T11:05:20.232Z,2.30
2017-09-13T11:07:50.736Z,2.20
2017-09-13T11:10:20.829Z,2.43
2017-09-13T11:12:52.409Z,2.43
2017-09-13T11:15:22.448Z,2.87
2017-09-13T11:17:51.843Z,2.97
2017-09-13T11:20:20.982Z,2.57
2017-09-13T11:22:50.662Z,2.27
2017-09-13T11:25:20.498Z,2.50
2017-09-13T11:27:49.813Z,3.30
2017-09-13T11:30:19.089Z,3.90
2017-09-13T11:32:47.998Z,2.53
2017-09-13T11:35:17.974Z,2.00
2017-09-13T11:37:47.684Z,2.60
2017-09-13T11:40:16.942Z,1.80
2017-09-13T11:42:45.828Z,2.80
2017-09-13T11:45:16.119Z,2.20
2017-09-13T11:47:45.649Z,2.50
2017-09-13T11:50:16.675Z,3.13
2017-09-13T11:52:46.485Z,2.20
2017-09-13T11:55:16.424Z,2.90
2017-09-13T11:57:45.829Z,2.53
2017-09-13T12:00:15.528Z,2.30
2017-09-13T12:02:46.179Z,2.70
2017-09-13T12:05:16.481Z,2.70
2017-09-13T12:07:45.933Z,1.93
2017-09-13T12:10:15.327Z,3.23
2017-09-13T12:12:45.694Z,2.47
2017-09-13T12:15:15.199Z,2.10
2017-09-13T12:17:44.337Z,3.10
2017-09-13T12:20:14.472Z,3.47
2017-09-13T12:22:43.414Z,2.30
2017-09-13T12:25:13.557Z,2.43
2017-09-13T12:27:43.717Z,2.33
2017-09-13T12:30:16.396Z,2.33
2017-09-13T12:32:46.792Z,2.90
2017-09-13T12:35:16.572Z,3.30
2017-09-13T12:37:45.694Z,2.80
2017-09-13T12:40:14.783Z,2.27
2017-09-13T12:42:43.683Z,2.00
2017-09-13T12:45:14.428Z,2.30
2017-09-13T12:47:45.046Z,2.90
2017-09-13T12:50:15.193Z,2.80
2017-09-13T12:52:44.631Z,2.67
2017-09-13T12:55:15.224Z,3.40
2017-09-13T12:57:45.754Z,2.60
2017-09-13T13:00:14.685Z,3.00
2017-09-13T13:02:44.138Z,2.90
2017-09-13T13:05:13.115Z,2.40
2017-09-13T13:07:42.295Z,2.57
2017-09-13T13:10:11.685Z,2.80
2017-09-13T13:12:41.632Z,2.53
2017-09-13T13:15:10.939Z,2.70
2017-09-13T13:17:40.901Z,3.90
2017-09-13T13:20:10.062Z,4.20
2017-09-13T13:22:39.044Z,3.90
2017-09-13T13:25:09.162Z,2.70
2017-09-13T13:27:38.392Z,2.50
2017-09-13T13:30:07.460Z,4.67
2017-09-13T13:32:36.955Z,3.50
2017-09-13T13:35:06.055Z,2.90
2017-09-13T13:37:35.359Z,2.67
2017-09-13T13:40:06.113Z,2.40
2017-09-13T13:42:36.213Z,1.97
2017-09-13T13:45:05.904Z,2.47
2017-09-13T13:47:35.116Z,2.40
2017-09-13T13:50:04.223Z,2.60
2017-09-13T13:52:33.448Z,2.60
2017-09-13T13:55:02.700Z,3.00
2017-09-13T13:57:31.914Z,2.30
2017-09-13T14:00:01.664Z,3.43
2017-09-13T14:02:30.925Z,2.50
2017-09-13T14:04:59.819Z,2.90
2017-09-13T14:07:28.833Z,2.60
2017-09-13T14:09:59.650Z,3.57
2017-09-13T14:12:29.069Z,2.80
2017-09-13T14:14:58.243Z,2.70
2017-09-13T14:17:27.593Z,2.67
2017-09-13T14:19:56.992Z,4.00
2017-09-13T14:22:26.198Z,2.07
2017-09-13T14:24:56.265Z,2.67
2017-09-13T14:27:25.693Z,3.40
2017-09-13T14:29:56.002Z,2.67
2017-09-13T14:32:25.296Z,2.73
2017-09-13T14:34:54.391Z,4.00
2017-09-13T14:37:23.540Z,3.00
2017-09-13T14:39:53.706Z,3.73
2017-09-13T14:42:23.443Z,5.57
2017-09-13T14:44:54.058Z,3.60
2017-09-13T14:47:23.170Z,3.10
2017-09-13T14:49:52.163Z,4.20
2017-09-13T14:52:21.123Z,3.07
2017-09-13T14:54:50.425Z,3.80
2017-09-13T14:57:20.762Z,4.40
2017-09-13T14:59:50.671Z,3.30
2017-09-13T15:02:20.062Z,2.83
2017-09-13T15:04:50.246Z,3.37
2017-09-13T15:07:19.545Z,3.30
2017-09-13T15:09:48.709Z,3.67
2017-09-13T15:12:18.815Z,3.37
2017-09-13T15:14:49.151Z,3.27
2017-09-13T15:17:19.628Z,2.50
2017-09-13T15:19:49.473Z,4.00
2017-09-13T15:22:18.370Z,3.20
2017-09-13T15:24:47.694Z,3.20
2017-09-13T15:27:18.086Z,3.60
2017-09-13T15:29:48.555Z,2.50
2017-09-13T15:32:18.426Z,3.10
2017-09-13T15:34:47.641Z,3.53
2017-09-13T15:37:18.438Z,3.67
2017-09-13T15:39:49.364Z,5.77
2017-09-13T15:42:21.867Z,3.23
2017-09-13T15:44:51.527Z,2.80
2017-09-13T15:47:20.888Z,3.47
2017-09-13T15:49:52.202Z,2.67
2017-09-13T15:52:21.434Z,3.07
2017-09-13T15:54:50.542Z,3.77
2017-09-13T15:57:20.518Z,2.97
2017-09-13T15:59:50.970Z,3.30
2017-09-13T16:02:19.983Z,4.23
2017-09-13T16:04:49.089Z,2.70
2017-09-13T16:07:18.550Z,2.80
2017-09-13T16:09:48.886Z,3.10
2017-09-13T16:12:18.876Z,3.97
2017-09-13T16:14:52.322Z,3.43
2017-09-13T16:17:22.136Z,3.30
2017-09-13T16:19:51.437Z,3.17
2017-09-13T16:22:23.253Z,2.90
2017-09-13T16:24:55.972Z,2.90
2017-09-13T16:27:25.686Z,3.20
2017-09-13T16:29:56.805Z,3.07
2017-09-13T16:32:30.975Z,3.37
2017-09-13T16:35:01.111Z,3.70
2017-09-13T16:37:32.084Z,3.03
2017-09-13T16:40:03.698Z,2.80
2017-09-13T16:42:33.396Z,3.67
2017-09-13T16:45:03.692Z,3.60
2017-09-13T16:47:38.697Z,3.30
2017-09-13T16:50:10.842Z,2.60
2017-09-13T16:52:42.196Z,3.40
2017-09-13T16:55:14.040Z,3.60
2017-09-13T16:57:46.157Z,4.90
2017-09-13T17:00:16.608Z,3.50
2017-09-13T17:02:52.485Z,6.47
2017-09-13T17:05:29.893Z,3.90
2017-09-13T17:08:02.603Z,3.50
2017-09-13T17:10:38.567Z,4.47
2017-09-13T17:13:14.820Z,3.87
2017-09-13T17:15:46.204Z,3.60
2017-09-13T17:18:17.282Z,3.63
2017-09-13T17:20:49.409Z,3.80
2017-09-13T17:23:21.002Z,3.70
2017-09-13T17:25:51.645Z,3.50
2017-09-13T17:28:22.109Z,4.43
2017-09-13T17:30:50.899Z,3.60
2017-09-13T17:33:21.532Z,3.20
2017-09-13T17:35:50.818Z,4.87
2017-09-13T17:38:21.364Z,3.80
2017-09-13T17:40:50.784Z,3.27
2017-09-13T17:43:20.206Z,3.90
2017-09-13T17:45:51.219Z,4.20
2017-09-13T17:48:22.180Z,3.97
2017-09-13T17:50:51.872Z,3.70
2017-09-13T17:53:21.163Z,4.10
2017-09-13T17:55:50.732Z,4.37
2017-09-13T17:58:20.237Z,4.00
2017-09-13T18:00:49.394Z,4.47
2017-09-13T18:03:19.092Z,3.70
2017-09-13T18:05:49.381Z,3.70
2017-09-13T18:08:20.275Z,3.60
2017-09-13T18:10:50.108Z,4.50
2017-09-13T18:13:19.599Z,4.40
2017-09-13T18:15:48.701Z,4.00
2017-09-13T18:18:19.919Z,4.27
2017-09-13T18:20:49.797Z,4.40
2017-09-13T18:23:18.832Z,4.20
2017-09-13T18:25:47.775Z,4.57
2017-09-13T18:28:17.321Z,5.30
2017-09-13T18:30:46.426Z,5.00
2017-09-13T18:33:16.580Z,4.90
2017-09-13T18:35:45.937Z,5.03
2017-09-13T18:38:15.378Z,5.50
2017-09-13T18:40:45.334Z,4.30
2017-09-13T18:43:16.229Z,5.37
2017-09-13T18:45:45.918Z,5.60
2017-09-13T18:48:16.233Z,5.60
2017-09-13T18:50:46.555Z,5.03
2017-09-13T18:53:15.483Z,5.40
2017-09-13T18:55:44.996Z,5.30
2017-09-13T18:58:14.192Z,5.60
2017-09-13T19:00:44.056Z,6.90
2017-09-13T19:03:13.411Z,7.60
2017-09-13T19:05:46.859Z,5.70
2017-09-13T19:08:16.884Z,4.90
2017-09-13T19:10:46.249Z,6.70
2017-09-13T19:13:15.275Z,6.50
2017-09-13T19:15:45.625Z,5.53
2017-09-13T19:18:15.336Z,4.93
2017-09-13T19:20:46.322Z,5.90
2017-09-13T19:23:15.469Z,6.37
2017-09-13T19:25:45.309Z,6.07
2017-09-13T19:28:19.400Z,6.20
2017-09-13T19:30:49.878Z,5.67
2017-09-13T19:33:18.970Z,5.10
2017-09-13T19:35:48.917Z,6.00
2017-09-13T19:38:18.212Z,5.60
2017-09-13T19:40:50.249Z,5.07
2017-09-13T19:43:19.383Z,6.10
2017-09-13T19:45:50.310Z,5.83
2017-09-13T19:48:25.430Z,5.67
2017-09-13T19:50:57.960Z,7.40
2017-09-13T19:53:34.012Z,4.90
2017-09-13T19:56:06.128Z,5.33
2017-09-13T19:58:37.468Z,5.83
2017-09-13T20:01:08.115Z,7.30
2017-09-13T20:03:37.533Z,5.60
2017-09-13T20:06:07.955Z,6.07
2017-09-13T20:08:38.617Z,5.40
2017-09-13T20:11:08.078Z,5.90
2017-09-13T20:13:37.207Z,6.13
2017-09-13T20:16:06.310Z,6.93
2017-09-13T20:18:35.548Z,7.27
2017-09-13T20:21:05.053Z,6.67
2017-09-13T20:23:34.570Z,5.80
2017-09-13T20:26:04.674Z,5.87
2017-09-13T20:28:37.002Z,5.60
2017-09-13T20:31:06.696Z,5.30
2017-09-13T20:33:37.499Z,5.57
2017-09-13T20:36:07.646Z,7.90
2017-09-13T20:38:37.816Z,4.63
2017-09-13T20:41:07.338Z,5.73
2017-09-13T20:43:37.791Z,6.50
2017-09-13T20:46:07.555Z,6.43
2017-09-13T20:48:37.303Z,5.60
2017-09-13T20:51:06.496Z,5.80
2017-09-13T20:53:35.650Z,6.27
2017-09-13T20:56:06.160Z,5.13
2017-09-13T20:58:35.138Z,6.20
2017-09-13T21:01:15.856Z,5.70
2017-09-13T21:03:56.379Z,6.37
2017-09-13T21:06:32.327Z,6.40
2017-09-13T21:09:05.420Z,5.50
2017-09-13T21:11:41.045Z,6.50
2017-09-13T21:14:17.938Z,5.20
2017-09-13T21:17:08.151Z,4.50
2017-09-13T21:19:49.857Z,4.13
2017-09-13T21:22:23.821Z,4.37
2017-09-13T21:24:55.646Z,4.13
2017-09-13T21:30:33.151Z,5.07
2017-09-13T21:33:10.818Z,6.47
2017-09-13T21:35:45.996Z,5.00
2017-09-13T21:38:28.318Z,4.90
2017-09-13T21:41:07.490Z,5.40
2017-09-13T21:43:42.394Z,6.00
2017-09-13T21:46:18.761Z,5.60
2017-09-13T21:51:41.643Z,5.33
2017-09-13T21:54:11.841Z,5.07
2017-09-13T21:56:49.693Z,5.77
2017-09-13T21:59:28.430Z,4.80
2017-09-13T22:02:03.454Z,5.70
2017-09-13T22:04:37.020Z,4.87
2017-09-13T22:07:06.354Z,5.43
2017-09-13T22:09:45.096Z,5.33
2017-09-13T22:12:16.656Z,6.33
2017-09-13T22:14:52.226Z,6.77
2017-09-13T22:17:23.480Z,6.10
2017-09-13T22:20:02.783Z,10.53
2017-09-13T22:22:42.335Z,6.10
2017-09-13T22:25:12.881Z,6.53
2017-09-13T22:27:45.886Z,5.60
2017-09-13T22:30:15.829Z,5.40
2017-09-13T22:32:45.545Z,5.50
2017-09-13T22:35:14.906Z,4.90
2017-09-13T22:37:45.960Z,4.60
2017-09-13T22:40:26.800Z,4.90
2017-09-13T22:43:17.747Z,6.37
2017-09-13T22:45:54.364Z,5.90
2017-09-13T22:48:24.506Z,5.60
2017-09-13T22:50:53.496Z,5.10
2017-09-13T22:53:22.589Z,5.90
2017-09-13T22:55:52.164Z,5.70
2017-09-13T22:58:22.418Z,5.20
2017-09-13T23:00:52.086Z,5.10
2017-09-13T23:03:21.348Z,5.27
2017-09-13T23:05:50.692Z,4.80
2017-09-13T23:08:20.616Z,5.67
2017-09-13T23:10:49.500Z,5.27
2017-09-13T23:13:19.234Z,5.27
2017-09-13T23:15:49.455Z,5.20
2017-09-13T23:18:20.315Z,5.07
2017-09-13T23:20:49.560Z,5.23
2017-09-13T23:23:18.656Z,10.50
2017-09-13T23:25:47.547Z,6.20
2017-09-13T23:28:20.309Z,5.60
2017-09-13T23:30:52.262Z,4.50
2017-09-13T23:33:22.104Z,4.50
2017-09-13T23:35:51.319Z,5.00
2017-09-13T23:38:21.126Z,4.50
2017-09-13T23:40:58.811Z,5.90
2017-09-13T23:43:30.012Z,4.80
2017-09-13T23:45:58.949Z,5.37
2017-09-13T23:48:32.099Z,4.53
2017-09-13T23:51:01.136Z,4.20
2017-09-13T23:53:30.238Z,4.40
2017-09-13T23:56:03.764Z,5.50
2017-09-13T23:58:33.347Z,4.20
